createdAt,value
2023-05-08T00:00:29.228Z,38.37
2023-05-08T00:01:29.236Z,38.35
2023-05-08T00:02:29.433Z,38.40
2023-05-08T00:03:29.461Z,38.36
2023-05-08T00:04:29.471Z,38.36
2023-05-08T00:05:29.473Z,38.39
2023-05-08T00:06:29.557Z,38.39
2023-05-08T00:07:29.589Z,38.41
2023-05-08T00:08:29.661Z,38.44
2023-05-08T00:09:29.737Z,38.42
2023-05-08T00:10:29.744Z,38.42
2023-05-08T00:11:29.819Z,38.43
2023-05-08T00:12:29.868Z,38.46
2023-05-08T00:13:29.901Z,38.48
2023-05-08T00:14:29.993Z,38.44
2023-05-08T00:15:30.028Z,38.49
2023-05-08T00:16:30.155Z,38.48
2023-05-08T00:17:30.153Z,38.50
2023-05-08T00:18:30.181Z,38.50
2023-05-08T00:19:30.262Z,38.52
2023-05-08T00:20:30.327Z,38.53
2023-05-08T00:21:30.332Z,38.51
2023-05-08T00:22:30.422Z,38.52
2023-05-08T00:23:30.500Z,38.53
2023-05-08T00:24:31.081Z,38.54
2023-05-08T00:25:30.612Z,38.53
2023-05-08T00:26:30.655Z,38.50
2023-05-08T00:27:30.689Z,38.52
2023-05-08T00:28:30.750Z,38.52
2023-05-08T00:29:30.806Z,38.54
2023-05-08T00:30:30.852Z,38.52
2023-05-08T00:31:30.963Z,38.57
2023-05-08T00:32:30.967Z,38.52
2023-05-08T00:33:31.041Z,38.56
2023-05-08T00:34:31.091Z,38.57
2023-05-08T00:35:31.138Z,38.54
2023-05-08T00:36:31.188Z,38.59
2023-05-08T00:37:31.255Z,38.58
2023-05-08T00:38:31.299Z,38.59
2023-05-08T00:39:31.364Z,38.63
2023-05-08T00:40:31.381Z,38.61
2023-05-08T00:41:31.433Z,38.59
2023-05-08T00:42:31.468Z,38.62
2023-05-08T00:43:31.557Z,38.62
2023-05-08T00:44:31.591Z,38.65
2023-05-08T00:45:31.618Z,38.62
2023-05-08T00:46:31.688Z,38.63
2023-05-08T00:47:31.813Z,38.61
2023-05-08T00:48:31.767Z,38.63
2023-05-08T00:49:31.810Z,38.64
2023-05-08T00:50:31.856Z,38.64
2023-05-08T00:51:31.934Z,38.66
2023-05-08T00:52:32.002Z,38.65
2023-05-08T00:53:32.046Z,38.66
2023-05-08T00:54:32.107Z,38.68
2023-05-08T00:55:32.132Z,38.68
2023-05-08T00:56:32.166Z,38.66
2023-05-08T00:57:32.290Z,38.66
2023-05-08T00:58:32.291Z,38.69
2023-05-08T00:59:32.358Z,38.69
2023-05-08T01:00:32.393Z,38.68
2023-05-08T01:01:32.527Z,38.71
2023-05-08T01:02:32.585Z,38.68
2023-05-08T01:03:32.639Z,38.70
2023-05-08T01:04:32.692Z,38.72
2023-05-08T01:05:32.699Z,38.70
2023-05-08T01:06:32.775Z,38.72
2023-05-08T01:07:32.779Z,38.72
2023-05-08T01:08:32.867Z,38.71
2023-05-08T01:09:32.940Z,38.72
2023-05-08T01:10:32.983Z,38.73
2023-05-08T01:11:33.031Z,38.74
2023-05-08T01:12:33.093Z,38.77
2023-05-08T01:13:33.143Z,38.78
2023-05-08T01:14:33.203Z,38.83
2023-05-08T01:15:33.240Z,38.81
2023-05-08T01:16:33.446Z,38.80
2023-05-08T01:17:33.407Z,38.86
2023-05-08T01:18:33.453Z,38.85
2023-05-08T01:19:33.517Z,38.85
2023-05-08T01:20:33.560Z,38.88
2023-05-08T01:21:33.626Z,38.90
2023-05-08T01:22:33.684Z,38.88
2023-05-08T01:23:33.727Z,38.85
2023-05-08T01:24:33.793Z,38.91
2023-05-08T01:25:33.885Z,38.92
2023-05-08T01:26:33.915Z,38.90
2023-05-08T01:27:33.980Z,38.92
2023-05-08T01:28:34.052Z,38.88
2023-05-08T01:29:34.108Z,38.92
2023-05-08T01:30:34.162Z,38.91
2023-05-08T01:31:34.194Z,38.91
2023-05-08T01:32:34.355Z,38.91
2023-05-08T01:33:34.335Z,38.94
2023-05-08T01:34:34.407Z,38.97
2023-05-08T01:35:34.499Z,38.92
2023-05-08T01:36:34.490Z,38.94
2023-05-08T01:37:34.596Z,38.94
2023-05-08T01:38:34.632Z,38.94
2023-05-08T01:39:34.692Z,38.98
2023-05-08T01:40:34.770Z,38.98
2023-05-08T01:41:34.828Z,38.97
2023-05-08T01:42:34.874Z,38.97
2023-05-08T01:43:34.955Z,39.01
2023-05-08T01:44:35.001Z,39.02
2023-05-08T01:45:35.054Z,39.05
2023-05-08T01:46:35.164Z,39.04
2023-05-08T01:47:35.171Z,39.04
2023-05-08T01:48:35.293Z,39.06
2023-05-08T01:49:35.291Z,39.07
2023-05-08T01:50:35.378Z,39.07
2023-05-08T01:51:35.443Z,39.09
2023-05-08T01:52:35.475Z,39.10
2023-05-08T01:53:35.553Z,39.10
2023-05-08T01:54:35.628Z,39.11
2023-05-08T01:55:35.678Z,39.09
2023-05-08T01:56:35.738Z,39.14
2023-05-08T01:57:35.796Z,39.13
2023-05-08T01:58:35.852Z,39.12
2023-05-08T01:59:35.924Z,39.18
2023-05-08T02:00:36.080Z,39.16
2023-05-08T02:01:36.028Z,39.17
2023-05-08T02:02:36.146Z,39.16
2023-05-08T02:03:36.205Z,39.21
2023-05-08T02:04:36.225Z,39.19
2023-05-08T02:05:36.276Z,39.22
2023-05-08T02:06:36.361Z,39.20
2023-05-08T02:07:36.413Z,39.18
2023-05-08T02:08:36.467Z,39.23
2023-05-08T02:09:36.542Z,39.27
2023-05-08T02:10:36.589Z,39.24
2023-05-08T02:11:36.612Z,39.28
2023-05-08T02:12:36.749Z,39.26
2023-05-08T02:13:36.731Z,39.27
2023-05-08T02:14:36.809Z,39.22
2023-05-08T02:15:36.859Z,39.24
2023-05-08T02:16:36.996Z,39.26
2023-05-08T02:17:37.003Z,39.33
2023-05-08T02:18:37.039Z,39.34
2023-05-08T02:19:37.147Z,39.32
2023-05-08T02:20:37.161Z,39.32
2023-05-08T02:21:37.237Z,39.33
2023-05-08T02:22:37.314Z,39.35
2023-05-08T02:23:37.354Z,39.34
2023-05-08T02:24:37.456Z,39.36
2023-05-08T02:25:37.452Z,39.35
2023-05-08T02:26:37.664Z,39.38
2023-05-08T02:27:37.628Z,39.38
2023-05-08T02:28:37.670Z,39.35
2023-05-08T02:29:37.756Z,39.37
2023-05-08T02:30:39.693Z,39.37
2023-05-08T02:31:37.913Z,39.38
2023-05-08T02:32:37.945Z,39.36
2023-05-08T02:33:37.985Z,39.37
2023-05-08T02:34:39.473Z,39.37
2023-05-08T02:35:38.022Z,39.39
2023-05-08T02:36:38.030Z,39.36
2023-05-08T02:37:38.010Z,39.41
2023-05-08T02:38:38.013Z,39.40
2023-05-08T02:39:38.039Z,39.37
2023-05-08T02:40:38.019Z,39.38
2023-05-08T02:41:38.001Z,39.43
2023-05-08T02:42:38.003Z,39.43
2023-05-08T02:43:37.992Z,39.43
2023-05-08T02:44:37.974Z,39.42
2023-05-08T02:45:37.950Z,39.44
2023-05-08T02:46:38.059Z,39.45
2023-05-08T02:47:38.142Z,39.46
2023-05-08T02:48:38.189Z,39.45
2023-05-08T02:49:38.199Z,39.44
2023-05-08T02:50:38.298Z,39.47
2023-05-08T02:51:38.357Z,39.49
2023-05-08T02:52:38.411Z,39.47
2023-05-08T02:53:38.457Z,39.47
2023-05-08T02:54:38.574Z,39.49
2023-05-08T02:55:38.598Z,39.47
2023-05-08T02:56:38.682Z,39.48
2023-05-08T02:57:38.703Z,39.49
2023-05-08T02:58:38.767Z,39.49
2023-05-08T02:59:38.822Z,39.50
2023-05-08T03:00:38.868Z,39.51
2023-05-08T03:01:38.977Z,39.49
2023-05-08T03:02:39.085Z,39.51
2023-05-08T03:03:39.260Z,39.50
2023-05-08T03:04:39.130Z,39.52
2023-05-08T03:05:39.171Z,39.50
2023-05-08T03:06:39.243Z,39.51
2023-05-08T03:07:39.322Z,39.52
2023-05-08T03:08:39.352Z,39.56
2023-05-08T03:09:39.436Z,39.55
2023-05-08T03:10:39.492Z,39.53
2023-05-08T03:11:39.556Z,39.54
2023-05-08T03:12:41.439Z,39.52
2023-05-08T03:13:39.580Z,39.54
2023-05-08T03:14:39.591Z,39.56
2023-05-08T03:15:39.580Z,39.56
2023-05-08T03:16:39.583Z,39.57
2023-05-08T03:17:39.578Z,39.57
2023-05-08T03:18:39.589Z,39.55
2023-05-08T03:19:39.572Z,39.58
2023-05-08T03:20:39.555Z,39.58
2023-05-08T03:21:39.523Z,39.59
2023-05-08T03:22:39.520Z,39.60
2023-05-08T03:23:39.531Z,39.60
2023-05-08T03:24:39.544Z,39.62
2023-05-08T03:25:39.532Z,39.64
2023-05-08T03:26:39.516Z,39.63
2023-05-08T03:27:39.495Z,39.64
2023-05-08T03:28:39.489Z,39.67
2023-05-08T03:29:39.517Z,39.64
2023-05-08T03:30:39.486Z,39.63
2023-05-08T03:31:39.518Z,39.66
2023-05-08T03:32:39.488Z,39.66
2023-05-08T03:33:39.451Z,39.64
2023-05-08T03:34:39.464Z,39.65
2023-05-08T03:35:39.470Z,39.66
2023-05-08T03:36:39.450Z,39.65
2023-05-08T03:37:39.406Z,39.68
2023-05-08T03:38:39.419Z,39.70
2023-05-08T03:39:39.464Z,39.68
2023-05-08T03:40:39.425Z,39.70
2023-05-08T03:41:39.439Z,39.72
2023-05-08T03:42:39.394Z,39.72
2023-05-08T03:43:39.414Z,39.70
2023-05-08T03:44:39.439Z,39.71
2023-05-08T03:45:39.394Z,39.70
2023-05-08T03:46:39.420Z,39.73
2023-05-08T03:47:39.421Z,39.74
2023-05-08T03:48:39.470Z,39.69
2023-05-08T03:49:39.511Z,39.71
2023-05-08T03:50:39.575Z,39.74
2023-05-08T03:51:39.628Z,39.74
2023-05-08T03:52:39.721Z,39.73
2023-05-08T03:53:39.771Z,39.74
2023-05-08T03:54:39.828Z,39.76
2023-05-08T03:55:39.881Z,39.75
2023-05-08T03:56:39.922Z,39.78
2023-05-08T03:57:39.977Z,39.78
2023-05-08T03:58:40.059Z,39.75
2023-05-08T03:59:40.127Z,39.79
2023-05-08T04:00:40.199Z,39.79
2023-05-08T04:01:40.267Z,39.78
2023-05-08T04:02:42.135Z,39.80
2023-05-08T04:03:40.489Z,39.81
2023-05-08T04:04:40.339Z,39.85
2023-05-08T04:05:40.366Z,39.83
2023-05-08T04:06:49.182Z,39.83
2023-05-08T04:07:41.414Z,39.83
2023-05-08T04:08:40.395Z,39.84
2023-05-08T04:09:40.372Z,39.87
2023-05-08T04:10:40.356Z,39.85
2023-05-08T04:11:40.345Z,39.83
2023-05-08T04:12:40.399Z,39.87
2023-05-08T04:13:40.330Z,39.85
2023-05-08T04:14:40.349Z,39.85
2023-05-08T04:15:40.315Z,39.84
2023-05-08T04:16:40.371Z,39.86
2023-05-08T04:17:40.432Z,39.89
2023-05-08T04:18:40.462Z,39.90
2023-05-08T04:19:40.491Z,39.88
2023-05-08T04:20:40.523Z,39.87
2023-05-08T04:21:40.538Z,39.87
2023-05-08T04:22:40.607Z,39.87
2023-05-08T04:23:40.669Z,39.89
2023-05-08T04:24:40.665Z,39.90
2023-05-08T04:25:40.723Z,39.91
2023-05-08T04:26:40.761Z,39.91
2023-05-08T04:27:40.786Z,39.91
2023-05-08T04:28:40.849Z,39.92
2023-05-08T04:29:40.903Z,39.94
2023-05-08T04:30:40.940Z,39.96
2023-05-08T04:31:41.028Z,39.95
2023-05-08T04:32:42.780Z,39.98
2023-05-08T04:33:41.040Z,39.95
2023-05-08T04:34:41.006Z,39.93
2023-05-08T04:35:40.991Z,39.97
2023-05-08T04:36:41.009Z,39.96
2023-05-08T04:37:40.995Z,39.96
2023-05-08T04:38:41.017Z,39.98
2023-05-08T04:39:42.527Z,39.97
2023-05-08T04:40:41.350Z,39.99
2023-05-08T04:41:41.314Z,40.01
2023-05-08T04:42:41.299Z,39.99
2023-05-08T04:43:41.387Z,40.00
2023-05-08T04:44:41.454Z,39.97
2023-05-08T04:45:41.456Z,40.01
2023-05-08T04:46:41.570Z,40.00
2023-05-08T04:47:41.574Z,39.97
2023-05-08T04:48:41.671Z,39.98
2023-05-08T04:49:41.609Z,40.07
2023-05-08T04:50:41.633Z,40.15
2023-05-08T04:51:41.650Z,40.27
2023-05-08T04:52:41.643Z,40.42
2023-05-08T04:53:41.665Z,40.50
2023-05-08T04:54:41.653Z,40.55
2023-05-08T04:55:41.629Z,40.59
2023-05-08T04:56:41.643Z,40.63
2023-05-08T04:57:41.664Z,40.75
2023-05-08T04:58:41.658Z,40.78
2023-05-08T04:59:41.673Z,40.89
2023-05-08T05:00:41.632Z,40.93
2023-05-08T05:01:41.810Z,41.00
2023-05-08T05:02:41.802Z,41.10
2023-05-08T05:03:41.809Z,41.07
2023-05-08T05:04:41.724Z,41.20
2023-05-08T05:05:41.727Z,41.26
2023-05-08T05:06:41.803Z,41.32
2023-05-08T05:07:41.891Z,41.36
2023-05-08T05:08:42.010Z,41.44
2023-05-08T05:09:42.002Z,41.49
2023-05-08T05:10:42.022Z,41.54
2023-05-08T05:11:41.987Z,41.62
2023-05-08T05:12:42.126Z,41.74
2023-05-08T05:13:42.007Z,41.73
2023-05-08T05:14:42.110Z,41.73
2023-05-08T05:15:42.090Z,41.83
2023-05-08T05:16:42.189Z,41.95
2023-05-08T05:17:42.155Z,42.09
2023-05-08T05:18:42.142Z,42.16
2023-05-08T05:19:42.148Z,42.23
2023-05-08T05:20:42.122Z,42.35
2023-05-08T05:21:42.140Z,42.40
2023-05-08T05:22:42.145Z,42.56
2023-05-08T05:23:42.167Z,42.67
2023-05-08T05:24:42.185Z,42.77
2023-05-08T05:25:42.270Z,42.89
2023-05-08T05:26:42.280Z,43.04
2023-05-08T05:27:42.283Z,43.15
2023-05-08T05:28:42.297Z,43.24
2023-05-08T05:29:42.310Z,43.37
2023-05-08T05:30:42.322Z,43.51
2023-05-08T05:31:42.384Z,43.58
2023-05-08T05:32:42.402Z,43.69
2023-05-08T05:33:42.325Z,43.74
2023-05-08T05:34:42.332Z,43.72
2023-05-08T05:35:42.357Z,43.86
2023-05-08T05:36:42.370Z,43.87
2023-05-08T05:37:42.367Z,43.98
2023-05-08T05:38:42.375Z,44.08
2023-05-08T05:39:43.216Z,44.23
2023-05-08T05:40:42.444Z,44.44
2023-05-08T05:41:42.394Z,45.16
2023-05-08T05:42:42.405Z,45.01
2023-05-08T05:43:42.412Z,45.07
2023-05-08T05:44:42.725Z,45.58
2023-05-08T05:45:42.456Z,46.03
2023-05-08T05:46:44.215Z,46.16
2023-05-08T05:47:42.497Z,46.55
2023-05-08T05:48:42.466Z,46.78
2023-05-08T05:49:42.538Z,47.21
2023-05-08T05:50:42.544Z,47.78
2023-05-08T05:51:42.589Z,47.69
2023-05-08T05:52:42.610Z,47.88
2023-05-08T05:53:42.551Z,47.76
2023-05-08T05:54:42.727Z,47.52
2023-05-08T05:55:42.610Z,47.71
2023-05-08T05:56:42.592Z,47.53
2023-05-08T05:57:42.599Z,48.43
2023-05-08T05:58:42.616Z,48.74
2023-05-08T05:59:42.633Z,48.25
2023-05-08T06:00:42.684Z,48.99
2023-05-08T06:01:42.772Z,48.92
2023-05-08T06:02:42.882Z,48.91
2023-05-08T06:03:42.990Z,49.17
2023-05-08T06:04:42.942Z,49.04
2023-05-08T06:05:42.963Z,49.22
2023-05-08T06:06:43.021Z,49.11
2023-05-08T06:07:43.084Z,49.03
2023-05-08T06:08:43.145Z,49.18
2023-05-08T06:09:43.214Z,49.30
2023-05-08T06:10:43.723Z,49.30
2023-05-08T06:11:43.259Z,49.49
2023-05-08T06:12:43.349Z,49.38
2023-05-08T06:13:43.375Z,49.55
2023-05-08T06:14:43.417Z,49.55
2023-05-08T06:15:43.458Z,49.61
2023-05-08T06:16:43.460Z,49.66
2023-05-08T06:17:43.499Z,49.70
2023-05-08T06:18:43.533Z,49.87
2023-05-08T06:19:43.567Z,49.74
2023-05-08T06:20:43.571Z,49.99
2023-05-08T06:21:43.590Z,49.96
2023-05-08T06:22:43.631Z,49.90
2023-05-08T06:23:43.660Z,49.97
2023-05-08T06:24:43.720Z,50.04
2023-05-08T06:25:43.668Z,50.09
2023-05-08T06:26:43.685Z,50.04
2023-05-08T06:27:43.693Z,50.09
2023-05-08T06:28:43.724Z,50.12
2023-05-08T06:29:43.750Z,50.15
2023-05-08T06:30:43.772Z,50.23
2023-05-08T06:31:43.739Z,50.28
2023-05-08T06:32:43.780Z,50.25
2023-05-08T06:33:43.751Z,50.22
2023-05-08T06:34:43.776Z,50.29
2023-05-08T06:35:43.773Z,50.24
2023-05-08T06:36:43.790Z,50.36
2023-05-08T06:37:43.807Z,50.27
2023-05-08T06:38:43.805Z,50.41
2023-05-08T06:39:43.801Z,50.74
2023-05-08T06:40:43.776Z,50.50
2023-05-08T06:41:43.802Z,50.22
2023-05-08T06:42:43.779Z,49.95
2023-05-08T06:43:43.785Z,49.94
2023-05-08T06:44:43.822Z,49.74
2023-05-08T06:45:43.782Z,49.59
2023-05-08T06:46:43.956Z,49.36
2023-05-08T06:47:43.786Z,48.28
2023-05-08T06:48:43.791Z,48.62
2023-05-08T06:49:43.806Z,48.79
2023-05-08T06:50:43.812Z,48.39
2023-05-08T06:51:43.813Z,47.21
2023-05-08T06:52:43.817Z,47.59
2023-05-08T06:53:43.823Z,47.89
2023-05-08T06:54:43.830Z,47.89
2023-05-08T06:55:43.816Z,47.98
2023-05-08T06:56:43.879Z,47.92
2023-05-08T06:57:43.822Z,47.87
2023-05-08T06:58:48.393Z,47.76
2023-05-08T06:59:44.838Z,47.76
2023-05-08T07:00:43.809Z,47.66
2023-05-08T07:01:43.871Z,47.61
2023-05-08T07:02:43.874Z,47.52
2023-05-08T07:03:43.787Z,47.50
2023-05-08T07:04:43.805Z,47.38
2023-05-08T07:05:43.775Z,47.36
2023-05-08T07:06:43.788Z,47.44
2023-05-08T07:07:43.760Z,47.35
2023-05-08T07:08:43.753Z,47.33
2023-05-08T07:09:43.768Z,47.31
2023-05-08T07:10:43.746Z,47.25
2023-05-08T07:11:43.749Z,47.18
2023-05-08T07:12:43.821Z,47.15
2023-05-08T07:13:43.724Z,47.10
2023-05-08T07:14:43.715Z,47.09
2023-05-08T07:15:43.818Z,47.01
2023-05-08T07:16:43.718Z,46.99
2023-05-08T07:17:43.774Z,46.93
2023-05-08T07:18:43.683Z,46.89
2023-05-08T07:19:43.683Z,46.88
2023-05-08T07:20:43.690Z,46.81
2023-05-08T07:21:43.719Z,46.77
2023-05-08T07:22:43.770Z,46.69
2023-05-08T07:23:43.664Z,46.70
2023-05-08T07:24:43.678Z,46.75
2023-05-08T07:25:43.676Z,46.69
2023-05-08T07:26:43.625Z,46.69
2023-05-08T07:27:43.658Z,46.70
2023-05-08T07:28:43.682Z,46.69
2023-05-08T07:29:43.649Z,46.67
2023-05-08T07:30:43.638Z,46.66
2023-05-08T07:31:43.653Z,46.75
2023-05-08T07:32:43.631Z,46.69
2023-05-08T07:33:43.626Z,46.53
2023-05-08T07:34:43.637Z,46.82
2023-05-08T07:35:43.610Z,46.78
2023-05-08T07:36:43.588Z,46.88
2023-05-08T07:37:43.605Z,46.86
2023-05-08T07:38:43.552Z,46.94
2023-05-08T07:39:43.593Z,46.97
2023-05-08T07:40:43.759Z,47.01
2023-05-08T07:41:43.648Z,46.74
2023-05-08T07:42:43.591Z,46.70
2023-05-08T07:43:43.589Z,46.67
2023-05-08T07:44:53.681Z,46.79
2023-05-08T07:45:44.748Z,46.56
2023-05-08T07:46:43.653Z,46.31
2023-05-08T07:47:43.620Z,46.18
2023-05-08T07:48:43.577Z,46.23
2023-05-08T07:49:43.581Z,46.09
2023-05-08T07:50:43.761Z,46.16
2023-05-08T07:51:43.534Z,46.23
2023-05-08T07:52:43.532Z,46.28
2023-05-08T07:53:43.526Z,46.14
2023-05-08T07:54:43.521Z,45.87
2023-05-08T07:55:43.518Z,45.81
2023-05-08T07:56:43.527Z,45.73
2023-05-08T07:57:43.519Z,45.58
2023-05-08T07:58:43.530Z,45.61
2023-05-08T07:59:43.475Z,45.59
2023-05-08T08:00:43.667Z,45.50
2023-05-08T08:01:43.558Z,45.54
2023-05-08T08:02:43.634Z,45.60
2023-05-08T08:03:43.745Z,45.53
2023-05-08T08:04:43.636Z,45.55
2023-05-08T08:05:43.779Z,45.76
2023-05-08T08:06:43.729Z,45.68
2023-05-08T08:07:43.763Z,45.51
2023-05-08T08:08:43.794Z,45.53
2023-05-08T08:09:43.836Z,45.42
2023-05-08T08:10:43.884Z,45.55
2023-05-08T08:11:43.925Z,45.37
2023-05-08T08:12:43.968Z,45.42
2023-05-08T08:13:43.988Z,45.51
2023-05-08T08:14:44.017Z,45.34
2023-05-08T08:15:44.116Z,45.46
2023-05-08T08:16:44.272Z,45.49
2023-05-08T08:17:44.262Z,45.40
2023-05-08T08:18:44.230Z,45.44
2023-05-08T08:19:44.291Z,45.32
2023-05-08T08:20:44.321Z,45.22
2023-05-08T08:21:44.370Z,45.31
2023-05-08T08:22:44.399Z,45.30
2023-05-08T08:23:44.480Z,45.44
2023-05-08T08:24:44.517Z,45.25
2023-05-08T08:25:44.572Z,45.34
2023-05-08T08:26:44.635Z,45.31
2023-05-08T08:27:44.682Z,45.19
2023-05-08T08:28:44.776Z,45.09
2023-05-08T08:29:44.769Z,45.27
2023-05-08T08:30:44.882Z,45.27
2023-05-08T08:31:44.909Z,45.18
2023-05-08T08:32:45.065Z,45.25
2023-05-08T08:33:44.983Z,45.29
2023-05-08T08:34:45.059Z,45.37
2023-05-08T08:35:45.272Z,45.45
2023-05-08T08:36:45.147Z,45.49
2023-05-08T08:37:45.241Z,45.68
2023-05-08T08:38:45.270Z,45.77
2023-05-08T08:39:45.295Z,45.78
2023-05-08T08:40:45.743Z,45.95
2023-05-08T08:41:45.364Z,46.14
2023-05-08T08:42:45.431Z,46.32
2023-05-08T08:43:45.463Z,46.26
2023-05-08T08:44:45.471Z,46.22
2023-05-08T08:45:45.533Z,46.20
2023-05-08T08:46:45.617Z,46.18
2023-05-08T08:47:45.612Z,46.34
2023-05-08T08:48:45.736Z,46.37
2023-05-08T08:49:45.642Z,46.28
2023-05-08T08:50:45.761Z,46.34
2023-05-08T08:51:45.698Z,46.54
2023-05-08T08:52:45.694Z,46.63
2023-05-08T08:53:45.729Z,46.71
2023-05-08T08:54:45.707Z,46.79
2023-05-08T08:55:45.779Z,46.88
2023-05-08T08:56:45.764Z,46.88
2023-05-08T08:57:45.738Z,46.78
2023-05-08T08:58:45.782Z,46.75
2023-05-08T08:59:45.818Z,46.79
2023-05-08T09:00:45.772Z,46.78
2023-05-08T09:01:45.786Z,46.77
2023-05-08T09:02:45.876Z,46.79
2023-05-08T09:03:48.331Z,46.76
2023-05-08T09:04:45.836Z,46.74
2023-05-08T09:05:45.837Z,46.66
2023-05-08T09:06:45.729Z,46.68
2023-05-08T09:07:45.737Z,46.74
2023-05-08T09:08:45.751Z,46.75
2023-05-08T09:09:45.735Z,46.85
2023-05-08T09:10:45.773Z,46.76
2023-05-08T09:11:45.698Z,46.87
2023-05-08T09:12:45.756Z,46.86
2023-05-08T09:13:45.717Z,46.96
2023-05-08T09:14:45.697Z,46.92
2023-05-08T09:15:45.687Z,46.87
2023-05-08T09:16:45.716Z,46.80
2023-05-08T09:17:45.714Z,46.81
2023-05-08T09:18:45.690Z,46.89
2023-05-08T09:19:45.657Z,46.87
2023-05-08T09:20:45.870Z,46.93
2023-05-08T09:21:45.692Z,46.92
2023-05-08T09:22:45.646Z,46.83
2023-05-08T09:23:45.635Z,46.85
2023-05-08T09:24:45.669Z,46.86
2023-05-08T09:25:45.779Z,46.97
2023-05-08T09:26:45.640Z,46.87
2023-05-08T09:27:46.598Z,46.81
2023-05-08T09:28:45.617Z,46.77
2023-05-08T09:29:45.653Z,46.73
2023-05-08T09:30:45.788Z,46.62
2023-05-08T09:31:45.634Z,46.74
2023-05-08T09:32:45.712Z,46.69
2023-05-08T09:33:45.586Z,46.68
2023-05-08T09:34:45.592Z,46.64
2023-05-08T09:35:45.780Z,46.56
2023-05-08T09:36:45.794Z,46.55
2023-05-08T09:37:45.733Z,46.54
2023-05-08T09:38:45.819Z,46.55
2023-05-08T09:39:45.881Z,46.56
2023-05-08T09:40:46.292Z,46.52
2023-05-08T09:41:46.016Z,46.50
2023-05-08T09:42:46.157Z,46.46
2023-05-08T09:43:46.145Z,46.17
2023-05-08T09:44:46.155Z,46.17
2023-05-08T09:45:46.363Z,45.58
2023-05-08T09:46:46.328Z,45.99
2023-05-08T09:47:46.350Z,46.27
2023-05-08T09:48:46.383Z,46.17
2023-05-08T09:49:46.447Z,46.20
2023-05-08T09:50:46.538Z,46.23
2023-05-08T09:51:46.578Z,46.35
2023-05-08T09:52:46.716Z,46.58
2023-05-08T09:53:46.676Z,46.85
2023-05-08T09:54:46.719Z,46.63
2023-05-08T09:55:46.835Z,46.74
2023-05-08T09:56:46.843Z,47.10
2023-05-08T09:57:46.909Z,47.03
2023-05-08T09:58:46.982Z,47.06
2023-05-08T09:59:47.008Z,47.55
2023-05-08T10:00:47.150Z,47.44
2023-05-08T10:01:47.147Z,47.90
2023-05-08T10:02:47.231Z,48.12
2023-05-08T10:03:47.292Z,48.53
2023-05-08T10:04:47.345Z,48.27
2023-05-08T10:05:47.380Z,48.51
2023-05-08T10:06:47.382Z,48.17
2023-05-08T10:07:47.443Z,48.47
2023-05-08T10:08:47.509Z,48.15
2023-05-08T10:09:50.894Z,47.77
2023-05-08T10:10:47.568Z,48.23
2023-05-08T10:11:47.548Z,47.93
2023-05-08T10:12:47.679Z,48.35
2023-05-08T10:13:47.552Z,48.03
2023-05-08T10:14:47.548Z,48.31
2023-05-08T10:15:47.541Z,48.39
2023-05-08T10:16:47.911Z,48.16
2023-05-08T10:17:47.530Z,48.33
2023-05-08T10:18:47.521Z,48.36
2023-05-08T10:19:47.491Z,48.33
2023-05-08T10:20:47.483Z,48.06
2023-05-08T10:21:47.506Z,48.11
2023-05-08T10:22:47.497Z,48.34
2023-05-08T10:23:47.478Z,48.29
2023-05-08T10:24:54.584Z,48.77
2023-05-08T10:25:47.477Z,48.96
2023-05-08T10:26:57.365Z,48.96
2023-05-08T10:27:48.475Z,48.32
2023-05-08T10:28:47.442Z,48.49
2023-05-08T10:29:47.455Z,48.95
2023-05-08T10:30:47.452Z,48.97
2023-05-08T10:31:47.441Z,48.89
2023-05-08T10:32:47.525Z,48.84
2023-05-08T10:33:47.493Z,48.52
2023-05-08T10:34:47.537Z,49.16
2023-05-08T10:35:47.613Z,49.07
2023-05-08T10:36:47.864Z,49.11
2023-05-08T10:37:47.671Z,48.72
2023-05-08T10:38:47.709Z,48.85
2023-05-08T10:39:47.742Z,48.97
2023-05-08T10:40:47.870Z,49.36
2023-05-08T10:41:47.853Z,49.08
2023-05-08T10:42:47.927Z,49.35
2023-05-08T10:43:48.016Z,49.17
2023-05-08T10:44:48.052Z,49.11
2023-05-08T10:45:48.129Z,49.34
2023-05-08T10:46:48.913Z,49.29
2023-05-08T10:47:48.254Z,49.29
2023-05-08T10:48:48.288Z,49.04
2023-05-08T10:49:48.344Z,48.81
2023-05-08T10:50:48.385Z,48.84
2023-05-08T10:51:48.470Z,48.80
2023-05-08T10:52:48.547Z,48.80
2023-05-08T10:53:48.579Z,48.76
2023-05-08T10:54:48.631Z,48.05
2023-05-08T10:55:48.693Z,48.44
2023-05-08T10:56:48.748Z,48.64
2023-05-08T10:57:48.804Z,48.46
2023-05-08T10:58:48.874Z,48.61
2023-05-08T10:59:48.934Z,48.22
2023-05-08T11:00:48.970Z,48.45
2023-05-08T11:01:49.134Z,47.63
2023-05-08T11:02:49.172Z,47.23
2023-05-08T11:03:49.233Z,47.74
2023-05-08T11:04:49.252Z,47.80
2023-05-08T11:05:49.296Z,47.95
2023-05-08T11:06:49.491Z,47.93
2023-05-08T11:07:49.433Z,46.89
2023-05-08T11:08:49.440Z,47.01
2023-05-08T11:09:49.441Z,46.97
2023-05-08T11:10:49.461Z,46.33
2023-05-08T11:11:49.487Z,46.64
2023-05-08T11:12:49.557Z,46.51
2023-05-08T11:13:49.492Z,46.77
2023-05-08T11:14:49.464Z,46.79
2023-05-08T11:15:49.556Z,46.38
2023-05-08T11:16:49.553Z,46.61
2023-05-08T11:17:49.611Z,46.31
2023-05-08T11:18:49.908Z,46.01
2023-05-08T11:19:49.588Z,45.63
2023-05-08T11:20:49.568Z,45.94
2023-05-08T11:21:49.584Z,44.96
2023-05-08T11:22:49.603Z,45.90
2023-05-08T11:23:49.586Z,46.46
2023-05-08T11:24:49.585Z,46.66
2023-05-08T11:25:49.642Z,46.52
2023-05-08T11:26:49.657Z,47.03
2023-05-08T11:27:49.662Z,47.01
2023-05-08T11:28:49.587Z,46.96
2023-05-08T11:29:49.622Z,46.91
2023-05-08T11:30:49.617Z,46.41
2023-05-08T11:31:49.908Z,46.20
2023-05-08T11:32:49.729Z,45.87
2023-05-08T11:33:49.639Z,45.38
2023-05-08T11:34:49.656Z,45.59
2023-05-08T11:35:49.623Z,45.82
2023-05-08T11:36:49.690Z,45.48
2023-05-08T11:37:49.667Z,45.86
2023-05-08T11:38:49.685Z,45.87
2023-05-08T11:39:49.675Z,45.71
2023-05-08T11:40:49.716Z,45.96
2023-05-08T11:41:49.755Z,45.96
2023-05-08T11:42:49.761Z,46.18
2023-05-08T11:43:49.767Z,45.61
2023-05-08T11:44:49.786Z,45.88
2023-05-08T11:45:49.820Z,45.34
2023-05-08T11:46:49.901Z,45.69
2023-05-08T11:47:49.905Z,45.88
2023-05-08T11:48:49.928Z,45.96
2023-05-08T11:49:49.950Z,46.11
2023-05-08T11:50:49.956Z,46.10
2023-05-08T11:51:50.007Z,45.92
2023-05-08T11:52:50.017Z,45.89
2023-05-08T11:53:50.064Z,45.79
2023-05-08T11:54:50.056Z,45.84
2023-05-08T11:55:50.073Z,45.70
2023-05-08T11:56:50.633Z,46.13
2023-05-08T11:57:50.094Z,45.95
2023-05-08T11:58:50.092Z,45.51
2023-05-08T11:59:50.117Z,45.31
2023-05-08T12:00:50.159Z,45.49
2023-05-08T12:02:06.811Z,45.52
2023-05-08T12:02:51.163Z,45.12
2023-05-08T12:03:50.487Z,45.47
2023-05-08T12:04:50.125Z,45.68
2023-05-08T12:05:50.102Z,45.52
2023-05-08T12:06:50.078Z,45.36
2023-05-08T12:07:50.085Z,45.25
2023-05-08T12:08:50.098Z,45.37
2023-05-08T12:09:50.082Z,45.34
2023-05-08T12:10:50.052Z,44.83
2023-05-08T12:11:50.059Z,45.55
2023-05-08T12:12:50.057Z,45.84
2023-05-08T12:13:50.027Z,45.18
2023-05-08T12:14:50.020Z,45.38
2023-05-08T12:15:50.029Z,45.26
2023-05-08T12:16:50.059Z,44.90
2023-05-08T12:17:50.057Z,45.57
2023-05-08T12:18:50.031Z,45.36
2023-05-08T12:19:49.999Z,45.83
2023-05-08T12:20:49.984Z,45.42
2023-05-08T12:21:50.016Z,45.55
2023-05-08T12:22:50.018Z,45.67
2023-05-08T12:23:49.997Z,45.25
2023-05-08T12:24:49.948Z,45.78
2023-05-08T12:25:49.950Z,45.94
2023-05-08T12:26:49.956Z,45.61
2023-05-08T12:27:49.998Z,45.52
2023-05-08T12:28:49.938Z,45.78
2023-05-08T12:29:49.956Z,45.83
2023-05-08T12:30:50.039Z,45.39
2023-05-08T12:31:49.945Z,45.28
2023-05-08T12:32:49.967Z,45.27
2023-05-08T12:33:49.929Z,44.97
2023-05-08T12:34:49.938Z,44.58
2023-05-08T12:35:49.889Z,44.82
2023-05-08T12:36:49.920Z,44.76
2023-05-08T12:37:50.373Z,44.59
2023-05-08T12:38:49.881Z,44.32
2023-05-08T12:39:49.867Z,44.27
2023-05-08T12:40:49.922Z,44.36
2023-05-08T12:41:50.000Z,44.41
2023-05-08T12:42:50.008Z,44.29
2023-05-08T12:43:50.002Z,43.93
2023-05-08T12:44:50.054Z,43.85
2023-05-08T12:45:50.075Z,43.83
2023-05-08T12:46:50.216Z,43.64
2023-05-08T12:47:50.154Z,43.83
2023-05-08T12:48:50.262Z,43.43
2023-05-08T12:49:50.211Z,43.36
2023-05-08T12:50:50.236Z,43.37
2023-05-08T12:51:50.285Z,43.27
2023-05-08T12:52:51.778Z,43.33